首页
METAR-TAF:

METAR-TAF

机场 :

圣彼得堡, 俄罗斯

普爾科沃機場

纬度: 59-58N, 经度: 030-18E, 海拔: 4米

当前天气观测

该预报发布于39分钟前的01:00 UTC
风速4节,风向南转南东,在西转西南之间变化
温度 -3°C
湿度 86%
气压 1003 hPa
能见度10公里或以上
多云层高于1000英尺
小雪

METAR: ULLI 190100Z 16002MPS 080V240 9999 -SN BKN010 M03/M05 Q1003 R10R/490340 NOSIG

时间: 04:39 (01:39 UTC)

预报

该预报发布于2小时和39分钟前的23:00 UTC
预报有效从19日的 00点(UTC)到 19日的 24点(UTC)
风速6节,风向东南,有时为16节阵风
能見度: 4000
多云层高于1100英尺
多云层高于2000英尺
小雪, 轻雾
短暂存在
从 19日的 00点(UTC)到 19日的 06点(UTC)
风速6节,风向南转南东,有时为16节阵风
能見度: 1500
多云层高于700英尺
多云层高于1500英尺, 积雨云.
小阵雪, 轻雾
成为
从 19日的 06点(UTC)到 19日的 08点(UTC)
能見度: 6000
短暂存在
从 19日的 06点(UTC)到 19日的 12点(UTC)
风速8节,风向南转南东,有时为17节阵风
能見度: 3100
多云层高于1500英尺, 积雨云.
小阵雪, 轻雾
成为
从 19日的 12点(UTC)到 19日的 14点(UTC)
风速8节,风向,有时为17节阵风
短暂存在
从 19日的 12点(UTC)到 19日的 24点(UTC)
能見度: 1200
多云层高于400英尺
多云层高于1500英尺, 积雨云.
阵雪, 轻雾

TAF: ULLI 182300Z 1900/1924 13003G08MPS 4000 -SN BR BKN011 BKN020 TEMPO 1900/1906 16003G08MPS 1500 -SHSN BR BKN007 BKN015CB BECMG 1906/1908 6000 NSW TEMPO 1906/1912 16004G09MPS 3100 -SHSN BR BKN015CB BECMG 1912/1914 09004G09MPS TEMPO 1912/1924 1200 SHSN BR BKN004 BKN015CB

超过4000个机场的气象观测和天气预报(METAR&TAF报告)。

可查询的气象台以黄色和红色小点在地图上表示。

将鼠标移到小点上方,可查看气象台名称。

然后点击查看天气观测和预报。

如需切换地图:点击带黑十字的绿色按钮放大地图;点击带横线的绿色按钮缩小地图;或者点击绿色箭头查看邻近地区的地图。


METAR-TAF: